Time;durP1;ratioP1;P1;durP2;ratioP2;P2;SDS_P1;SDS_P2;PMS_P1;PMS_P2;Temp;Humidity;BMP_temperature;BMP_pressure;BME280_temperature;BME280_humidity;BME280_pressure;Samples;Min_cycle;Max_cycle;Signal;HPM_P1;HPM_P2
2023/10/27 00:01:30;;;;;;;252.15;12.48;;;;;;;10.54;68.38;97687.97;10461954;28;20040;-59
2023/10/27 00:06:32;;;;;;;254.38;11.45;;;;;;;10.54;68.16;97674.06;10462409;28;21124;-59
2023/10/27 00:11:38;;;;;;;96.43;5.72;;;;;;;10.52;68.17;97678.63;10463341;28;20053;-59
2023/10/27 00:16:40;;;;;;;49.47;3.25;;;;;;;10.42;68.21;97678.63;10460131;28;20059;-59
2023/10/27 00:21:41;;;;;;;139.77;6.20;;;;;;;10.33;68.27;97679.53;10445754;28;20051;-59
2023/10/27 00:26:44;;;;;;;178.55;6.15;;;;;;;10.42;68.42;97682.09;10461594;28;20523;-59
2023/10/27 00:31:46;;;;;;;131.52;5.47;;;;;;;10.52;68.21;97682.06;10462499;28;20816;-59
2023/10/27 00:36:48;;;;;;;82.78;4.55;;;;;;;10.39;67.96;97689.41;10459891;28;20158;-59
2023/10/27 00:41:50;;;;;;;153.50;8.60;;;;;;;10.30;68.34;97680.63;10460724;28;20068;-59
2023/10/27 00:46:53;;;;;;;155.38;6.72;;;;;;;10.14;68.35;97690.88;10460579;28;20052;-59
2023/10/27 00:51:55;;;;;;;49.50;2.80;;;;;;;10.13;68.43;97675.34;10461875;28;20139;-59
2023/10/27 00:56:58;;;;;;;6.22;2.00;;;;;;;10.12;68.59;97681.53;10468183;28;20130;-59
2023/10/27 01:02:00;;;;;;;95.80;6.38;;;;;;;10.08;68.69;97681.00;10468195;28;20412;-59
2023/10/27 01:07:03;;;;;;;204.90;8.60;;;;;;;10.00;68.35;97687.91;10469098;28;20136;-59
2023/10/27 01:12:05;;;;;;;198.38;8.20;;;;;;;9.89;68.51;97665.38;10469734;28;20123;-59
2023/10/27 01:17:07;;;;;;;117.63;5.50;;;;;;;9.85;68.34;97665.84;10469223;28;20063;-59
2023/10/27 01:22:12;;;;;;;10.73;1.35;;;;;;;9.75;68.54;97673.66;10467423;28;20060;-59
2023/10/27 01:27:14;;;;;;;40.30;2.42;;;;;;;9.75;68.67;97654.59;10450380;28;20669;-59
2023/10/27 01:32:16;;;;;;;14.23;2.40;;;;;;;9.83;68.72;97662.53;10447698;28;20534;-59
2023/10/27 01:37:18;;;;;;;101.65;5.85;;;;;;;9.81;68.58;97661.88;10468359;28;20048;-59
2023/10/27 01:42:22;;;;;;;73.05;2.47;;;;;;;9.79;68.83;97655.97;10469192;28;20072;-59
2023/10/27 01:47:24;;;;;;;59.88;4.05;;;;;;;9.87;68.59;97656.06;10466338;28;20907;-59
2023/10/27 01:52:26;;;;;;;146.60;6.70;;;;;;;9.78;68.45;97647.28;10465780;28;20052;-59
2023/10/27 01:57:28;;;;;;;49.33;3.80;;;;;;;9.74;68.42;97640.72;10466331;28;20041;-60
2023/10/27 02:02:30;;;;;;;113.45;5.65;;;;;;;9.68;68.42;97636.06;10468165;28;20394;-59
2023/10/27 02:07:32;;;;;;;145.93;7.78;;;;;;;9.73;68.63;97633.03;10470896;28;20118;-59
2023/10/27 02:12:34;;;;;;;175.32;5.50;;;;;;;9.77;68.43;97634.41;10475734;28;20052;-59
2023/10/27 02:17:39;;;;;;;132.40;6.85;;;;;;;9.67;68.47;97641.44;10473513;28;20052;-59
2023/10/27 02:22:41;;;;;;;66.43;3.22;;;;;;;9.61;68.60;97630.53;10471981;28;20425;-59
2023/10/27 02:27:43;;;;;;;34.83;3.17;;;;;;;9.53;68.73;97621.78;10471225;28;20508;-59
2023/10/27 02:32:45;;;;;;;137.60;7.40;;;;;;;9.67;69.00;97620.56;10472027;28;20051;-59
2023/10/27 02:37:47;;;;;;;87.63;4.47;;;;;;;9.77;68.30;97609.09;10471892;28;20109;-59
2023/10/27 02:42:49;;;;;;;51.38;3.10;;;;;;;9.83;68.22;97611.13;10472341;28;20040;-59
2023/10/27 02:47:52;;;;;;;63.95;4.18;;;;;;;9.85;68.33;97600.56;10472855;28;20044;-59
2023/10/27 02:52:54;;;;;;;40.80;2.97;;;;;;;9.82;68.13;97590.41;10471118;28;20052;-58
2023/10/27 02:57:56;;;;;;;36.97;1.88;;;;;;;9.51;68.63;97587.16;10464779;28;20054;-59
2023/10/27 03:02:58;;;;;;;131.55;9.63;;;;;;;9.54;68.44;97585.09;10470695;28;20106;-59
2023/10/27 03:08:00;;;;;;;82.35;3.05;;;;;;;9.61;68.45;97582.75;10467621;28;20036;-59
2023/10/27 03:13:08;;;;;;;91.15;4.18;;;;;;;9.62;68.77;97584.41;10463854;28;20544;-59
2023/10/27 03:18:11;;;;;;;77.72;4.03;;;;;;;9.70;68.57;97573.28;10461904;28;20607;-59
2023/10/27 03:23:13;;;;;;;39.38;2.40;;;;;;;9.82;68.40;97574.72;10464299;28;20488;-59
2023/10/27 03:28:15;;;;;;;83.03;4.30;;;;;;;9.74;68.27;97575.47;10466472;28;20059;-59
2023/10/27 03:33:18;;;;;;;94.70;5.72;;;;;;;9.83;68.36;97566.75;10462950;28;21072;-59
2023/10/27 03:38:20;;;;;;;192.18;6.85;;;;;;;9.90;68.23;97573.06;10462926;28;20040;-59
2023/10/27 03:43:22;;;;;;;47.63;3.28;;;;;;;9.88;68.23;97564.53;10464281;28;20041;-59
2023/10/27 03:48:24;;;;;;;100.55;4.32;;;;;;;9.85;68.30;97574.47;10459295;28;20051;-59
2023/10/27 03:53:26;;;;;;;79.38;3.85;;;;;;;9.84;68.28;97568.41;10463658;28;20044;-60
2023/10/27 03:58:29;;;;;;;17.23;3.33;;;;;;;9.84;68.41;97570.19;10463194;28;20040;-59
2023/10/27 04:03:48;;;;;;;8.20;1.40;;;;;;;9.86;68.26;97560.44;10464427;28;20093;-60
2023/10/27 04:08:50;;;;;;;1.98;1.27;;;;;;;9.80;68.42;97550.56;10461445;28;20094;-60
2023/10/27 04:13:52;;;;;;;44.63;2.33;;;;;;;9.88;68.42;97558.50;10462234;28;20427;-60
2023/10/27 04:18:53;;;;;;;16.95;2.08;;;;;;;9.93;68.30;97566.72;10465134;28;20084;-60
2023/10/27 04:23:58;;;;;;;113.55;4.85;;;;;;;9.84;68.54;97564.97;10463808;28;20147;-60
2023/10/27 04:29:00;;;;;;;77.72;4.68;;;;;;;9.91;68.51;97555.59;10468283;28;20044;-60
2023/10/27 04:34:03;;;;;;;40.97;3.67;;;;;;;10.05;68.26;97565.56;10472375;28;20048;-60
2023/10/27 04:39:05;;;;;;;39.35;2.40;;;;;;;10.03;68.27;97565.72;10471126;28;20078;-60
2023/10/27 04:44:08;;;;;;;51.53;4.53;;;;;;;9.96;68.38;97566.44;10471110;28;20062;-60
2023/10/27 04:49:10;;;;;;;19.98;2.10;;;;;;;9.91;68.60;97568.66;10472116;28;20036;-59
2023/10/27 04:54:12;;;;;;;34.22;2.15;;;;;;;9.97;68.46;97558.44;10470282;28;20067;-60
2023/10/27 04:59:14;;;;;;;54.33;2.08;;;;;;;10.11;68.23;97562.38;10468869;28;20062;-60
2023/10/27 05:04:16;;;;;;;4.93;1.23;;;;;;;10.17;67.94;97553.94;10471565;28;20522;-59
2023/10/27 05:09:21;;;;;;;4.90;1.30;;;;;;;10.14;68.05;97551.63;10470602;28;20483;-60
2023/10/27 05:14:23;;;;;;;15.73;1.42;;;;;;;10.10;67.88;97547.66;10470430;28;20151;-60
2023/10/27 05:19:25;;;;;;;13.93;1.70;;;;;;;10.15;67.96;97542.84;10467918;28;20056;-60
2023/10/27 05:24:27;;;;;;;1.98;1.38;;;;;;;10.20;67.95;97540.59;10470397;28;20253;-60
2023/10/27 05:29:29;;;;;;;2.30;1.30;;;;;;;10.22;68.26;97542.09;10468328;28;20046;-59
2023/10/27 05:34:31;;;;;;;2.53;1.40;;;;;;;10.22;68.05;97531.63;10469079;28;20041;-59
2023/10/27 05:39:33;;;;;;;2.30;1.25;;;;;;;10.23;68.28;97535.91;10468808;28;20202;-60
2023/10/27 05:44:36;;;;;;;1.63;1.30;;;;;;;10.27;68.09;97536.44;10466633;28;20127;-60
2023/10/27 05:49:37;;;;;;;2.20;1.50;;;;;;;10.31;67.79;97545.63;10468669;28;20523;-60
2023/10/27 05:54:40;;;;;;;3.50;1.80;;;;;;;10.19;67.85;97533.72;10468824;28;20173;-60
2023/10/27 05:59:42;;;;;;;2.90;2.00;;;;;;;9.96;67.90;97540.31;10469033;28;20044;-59
2023/10/27 06:04:44;;;;;;;3.45;2.13;;;;;;;9.87;68.07;97539.38;10468297;28;20049;-60
2023/10/27 06:09:46;;;;;;;4.78;1.65;;;;;;;9.92;68.31;97534.56;10468211;28;20032;-60
2023/10/27 06:14:48;;;;;;;1.85;1.30;;;;;;;9.97;67.89;97548.00;10468131;28;20036;-60
2023/10/27 06:19:50;;;;;;;2.88;1.48;;;;;;;10.09;68.01;97553.88;10466979;28;20519;-60
2023/10/27 06:25:10;;;;;;;1.88;1.35;;;;;;;10.09;67.93;97553.88;10468390;28;20582;-60
2023/10/27 06:30:12;;;;;;;4.10;1.40;;;;;;;10.10;68.04;97552.88;10467535;28;20131;-60
2023/10/27 06:35:14;;;;;;;3.42;1.50;;;;;;;10.17;67.97;97570.44;10466184;28;20040;-60
2023/10/27 06:40:17;;;;;;;2.80;1.70;;;;;;;10.16;67.77;97566.19;10448220;28;20064;-60
2023/10/27 06:45:19;;;;;;;4.43;2.33;;;;;;;10.13;68.14;97571.72;10465129;28;20101;-60
2023/10/27 06:50:21;;;;;;;5.57;1.67;;;;;;;10.21;67.98;97577.03;10464760;28;20044;-60
2023/10/27 06:55:23;;;;;;;4.82;1.67;;;;;;;10.33;67.88;97575.03;10466220;28;20048;-60
2023/10/27 07:00:25;;;;;;;3.08;1.50;;;;;;;10.43;67.69;97578.41;10463005;28;20102;-60
2023/10/27 07:05:27;;;;;;;5.05;2.55;;;;;;;10.40;67.86;97581.28;10464760;28;20045;-60
2023/10/27 07:10:29;;;;;;;6.60;2.95;;;;;;;10.41;67.79;97589.00;10466508;28;20611;-60
2023/10/27 07:15:31;;;;;;;3.88;1.70;;;;;;;10.38;68.05;97601.50;10464934;28;20056;-60
2023/10/27 07:20:38;;;;;;;4.53;1.55;;;;;;;10.31;68.38;97598.69;10445139;28;20807;-60
2023/10/27 07:25:40;;;;;;;2.60;1.60;;;;;;;10.37;67.99;97594.66;10463508;28;20055;-60
2023/10/27 07:30:43;;;;;;;2.80;1.52;;;;;;;10.34;68.18;97610.63;10462939;28;20055;-61
2023/10/27 07:35:47;;;;;;;2.88;1.48;;;;;;;10.37;68.28;97607.72;10463311;28;20074;-60
2023/10/27 07:40:49;;;;;;;2.15;1.40;;;;;;;10.51;67.94;97617.69;10464451;28;20084;-60
2023/10/27 07:45:54;;;;;;;2.65;1.70;;;;;;;10.55;67.92;97611.19;10462235;28;20051;-60
2023/10/27 07:50:59;;;;;;;1.85;1.27;;;;;;;10.58;67.81;97621.34;10462869;28;20045;-61
2023/10/27 07:56:01;;;;;;;2.95;1.80;;;;;;;10.54;67.99;97630.47;10464240;28;20036;-60
2023/10/27 08:01:05;;;;;;;3.38;1.50;;;;;;;10.60;68.09;97632.50;10462648;28;20055;-61
2023/10/27 08:06:08;;;;;;;4.13;1.90;;;;;;;10.68;67.77;97626.50;10463411;28;20862;-60
2023/10/27 08:11:20;;;;;;;2.45;1.63;;;;;;;10.73;67.91;97642.56;10459174;28;20420;-60
2023/10/27 08:16:22;;;;;;;3.33;2.00;;;;;;;10.74;67.88;97650.28;10459524;28;20044;-61
2023/10/27 08:21:26;;;;;;;2.33;1.50;;;;;;;10.80;67.63;97651.47;10449965;28;20052;-61
2023/10/27 08:26:28;;;;;;;2.78;1.63;;;;;;;10.67;67.84;97649.22;10458191;28;20440;-61
2023/10/27 08:31:30;;;;;;;2.03;1.27;;;;;;;10.61;67.96;97647.19;10458973;28;20516;-61
2023/10/27 08:36:32;;;;;;;1.88;1.00;;;;;;;10.55;67.95;97647.78;10457585;28;20048;-60
2023/10/27 08:41:36;;;;;;;2.10;1.23;;;;;;;10.65;67.92;97643.31;10456766;28;20052;-61
2023/10/27 08:46:41;;;;;;;1.52;1.00;;;;;;;10.73;67.96;97646.00;10452846;28;20051;-60
2023/10/27 08:51:44;;;;;;;1.90;1.30;;;;;;;10.87;67.85;97655.13;10460052;28;20356;-61
2023/10/27 08:56:46;;;;;;;7.70;4.13;;;;;;;10.95;67.68;97650.00;10454838;28;20618;-61
2023/10/27 09:01:48;;;;;;;4.72;2.28;;;;;;;10.91;67.62;97664.34;10458827;28;20482;-61
2023/10/27 09:06:50;;;;;;;3.83;1.77;;;;;;;10.87;67.82;97666.41;10453776;28;20040;-60
2023/10/27 09:11:52;;;;;;;3.72;1.83;;;;;;;11.02;67.76;97659.72;10460567;28;20956;-61
2023/10/27 09:17:09;;;;;;;6.20;3.10;;;;;;;11.19;67.73;97664.13;10462885;28;20123;-60
2023/10/27 09:22:20;;;;;;;3.10;1.70;;;;;;;11.28;67.37;97681.56;10462790;28;20040;-61
2023/10/27 09:27:33;;;;;;;;;;;;;;;11.17;67.45;97691.44;10457110;28;20057;-61
2023/10/27 09:32:35;;;;;;;2.22;1.48;;;;;;;11.12;67.84;97696.28;10460991;28;19935;-61
2023/10/27 09:37:38;;;;;;;5.18;2.17;;;;;;;11.19;67.70;97692.91;10457787;28;20048;-60
2023/10/27 09:42:40;;;;;;;2.58;1.33;;;;;;;11.26;67.63;97701.00;10457809;28;20040;-60
2023/10/27 09:47:50;;;;;;;7.90;3.60;;;;;;;11.27;67.83;97700.81;10459474;28;20033;-60
2023/10/27 09:52:56;;;;;;;;;;;;;;;11.11;68.30;97697.25;10460670;28;20378;-61
2023/10/27 09:58:00;;;;;;;3.50;1.65;;;;;;;11.40;67.86;97702.28;10460925;28;19935;-60
2023/10/27 10:03:05;;;;;;;3.88;1.80;;;;;;;11.80;67.25;97708.66;10460479;28;20408;-60
2023/10/27 10:08:08;;;;;;;4.00;1.55;;;;;;;12.45;66.69;97707.25;10455766;28;20401;-60
2023/10/27 10:13:16;;;;;;;1.85;1.10;;;;;;;12.72;66.02;97709.66;10459101;28;20043;-60
2023/10/27 10:18:21;;;;;;;5.50;1.75;;;;;;;12.87;65.44;97702.81;10453391;28;20055;-61
2023/10/27 10:23:44;;;;;;;4.13;1.75;;;;;;;13.07;64.74;97707.81;10451260;28;20506;-60
2023/10/27 10:28:47;;;;;;;8.30;3.17;;;;;;;13.27;64.94;97707.31;10454834;28;20056;-60
2023/10/27 10:33:51;;;;;;;4.95;2.13;;;;;;;13.31;64.91;97705.22;10457436;28;20676;-60
2023/10/27 10:39:03;;;;;;;2.80;1.40;;;;;;;13.17;64.71;97706.66;10458797;28;20051;-61
2023/10/27 10:44:15;;;;;;;4.97;1.83;;;;;;;12.97;64.52;97707.91;10456432;28;20135;-60
2023/10/27 10:49:28;;;;;;;2.85;1.60;;;;;;;13.16;64.76;97712.06;10457145;28;20049;-60
2023/10/27 10:54:33;;;;;;;2.30;1.10;;;;;;;13.21;65.14;97712.41;10452168;28;20048;-61
2023/10/27 10:59:36;;;;;;;2.40;1.13;;;;;;;13.40;64.93;97712.91;10450100;28;20390;-60
2023/10/27 11:04:38;;;;;;;2.10;1.00;;;;;;;13.41;64.64;97721.63;10457223;28;20047;-61
2023/10/27 11:09:48;;;;;;;2.38;1.15;;;;;;;13.73;64.21;97711.16;10458649;28;20093;-61
2023/10/27 11:14:50;;;;;;;1.88;0.82;;;;;;;14.22;63.73;97711.91;10459973;28;20488;-61
2023/10/27 11:19:53;;;;;;;2.22;1.00;;;;;;;14.49;63.01;97704.44;10462845;28;20055;-61
2023/10/27 11:24:56;;;;;;;2.35;0.68;;;;;;;14.10;62.72;97698.31;10455529;28;20380;-61
2023/10/27 11:30:00;;;;;;;1.02;0.80;;;;;;;14.24;62.65;97696.78;10462276;28;20040;-61
2023/10/27 11:35:03;;;;;;;0.85;0.57;;;;;;;14.50;61.91;97700.84;10454448;28;20052;-60
2023/10/27 11:40:13;;;;;;;0.85;0.85;;;;;;;14.58;60.51;97702.63;10455841;28;20052;-61
2023/10/27 11:45:15;;;;;;;;;;;;;;;14.42;60.21;97692.94;10455477;28;20059;-61
2023/10/27 11:50:20;;;;;;;2.03;1.00;;;;;;;14.23;61.49;97693.31;10458449;28;19924;-60
2023/10/27 11:55:22;;;;;;;3.65;1.40;;;;;;;14.04;61.17;97688.47;10455552;28;20039;-60
2023/10/27 12:00:24;;;;;;;2.47;0.93;;;;;;;14.03;61.23;97693.88;10457743;28;20049;-61
2023/10/27 12:05:26;;;;;;;4.82;1.88;;;;;;;13.87;60.88;97692.09;10453108;28;20236;-60
2023/10/27 12:10:28;;;;;;;0.95;0.70;;;;;;;13.91;61.17;97698.66;10459980;28;20139;-60
2023/10/27 12:21:32;;;;;;;1.90;1.25;;;;;;;13.80;60.05;97698.19;10532794;27;20489;-62
2023/10/27 12:26:35;;;;;;;3.92;1.10;;;;;;;14.19;60.32;97705.16;10531759;28;20148;-62
2023/10/27 12:31:37;;;;;;;1.05;0.70;;;;;;;14.34;58.99;97711.38;10537071;28;20098;-60
2023/10/27 12:36:40;;;;;;;2.35;1.13;;;;;;;14.24;59.45;97720.44;10497891;28;20036;-60
2023/10/27 12:41:42;;;;;;;3.22;0.77;;;;;;;13.95;59.79;97717.53;10535958;28;20052;-60
2023/10/27 12:46:44;;;;;;;3.95;0.80;;;;;;;14.37;59.05;97720.75;10527969;28;20377;-60
2023/10/27 12:51:47;;;;;;;3.40;0.90;;;;;;;14.04;58.63;97719.19;10531783;28;20128;-60
2023/10/27 12:56:49;;;;;;;2.55;0.80;;;;;;;14.28;59.07;97721.75;10515040;28;20039;-60
2023/10/27 13:01:51;;;;;;;5.18;0.90;;;;;;;14.51;58.50;97723.50;10531165;28;20081;-60
2023/10/27 13:06:53;;;;;;;1.48;1.05;;;;;;;14.41;58.17;97717.59;10534257;28;20105;-60
2023/10/27 13:11:56;;;;;;;3.13;1.00;;;;;;;14.62;57.75;97714.44;10534930;28;20511;-60
2023/10/27 13:16:58;;;;;;;5.05;0.95;;;;;;;14.76;57.95;97708.47;10507138;28;20180;-60
2023/10/27 13:22:01;;;;;;;1.15;0.73;;;;;;;14.47;58.18;97708.22;10517344;28;20324;-60
2023/10/27 13:27:03;;;;;;;1.88;0.70;;;;;;;14.20;58.02;97712.09;10529678;28;20048;-60
2023/10/27 13:32:08;;;;;;;1.75;0.93;;;;;;;14.21;58.47;97710.25;10511136;28;20071;-60
2023/10/27 13:37:10;;;;;;;2.25;0.80;;;;;;;13.90;58.97;97720.69;10501489;28;20525;-59
2023/10/27 13:42:13;;;;;;;0.73;0.50;;;;;;;13.55;58.97;97734.97;10503218;28;20044;-60
2023/10/27 13:47:16;;;;;;;2.80;0.60;;;;;;;13.45;59.39;97742.19;10503736;28;20043;-60
2023/10/27 13:52:18;;;;;;;1.40;0.57;;;;;;;13.40;59.98;97746.22;10509076;28;20055;-59
2023/10/27 13:57:21;;;;;;;5.28;1.25;;;;;;;13.49;59.79;97755.81;10505173;28;20058;-60
2023/10/27 14:02:23;;;;;;;2.17;0.70;;;;;;;13.53;59.89;97767.63;10503633;28;20473;-60
2023/10/27 14:07:26;;;;;;;4.30;1.30;;;;;;;13.60;59.70;97765.97;10503549;28;20054;-60
2023/10/27 14:12:28;;;;;;;1.15;0.75;;;;;;;13.52;59.74;97761.53;10482388;28;20072;-60
2023/10/27 14:17:29;;;;;;;1.40;0.90;;;;;;;13.68;59.90;97758.09;10505259;28;20483;-59
2023/10/27 14:22:31;;;;;;;0.90;0.65;;;;;;;13.89;59.60;97757.59;10503701;28;20128;-60
2023/10/27 14:27:33;;;;;;;0.68;0.68;;;;;;;13.84;59.17;97762.56;10500386;28;20044;-59
2023/10/27 14:32:36;;;;;;;0.73;0.60;;;;;;;13.85;58.82;97767.63;10486238;28;20050;-59
2023/10/27 14:37:39;;;;;;;2.50;0.73;;;;;;;13.92;59.42;97765.19;10516841;27;20469;-60
2023/10/27 14:42:41;;;;;;;1.95;0.90;;;;;;;13.94;59.13;97764.03;10503521;28;20047;-60
2023/10/27 14:47:43;;;;;;;1.20;0.70;;;;;;;13.84;58.83;97773.06;10499799;28;20044;-60
2023/10/27 14:52:49;;;;;;;2.97;1.55;;;;;;;13.61;59.36;97776.34;10502662;28;20994;-60
2023/10/27 14:57:53;;;;;;;1.00;0.65;;;;;;;13.47;59.65;97790.09;10499837;28;20401;-60
2023/10/27 15:02:57;;;;;;;0.85;0.50;;;;;;;13.39;59.89;97791.84;10499448;28;20071;-60
2023/10/27 15:08:00;;;;;;;2.00;0.65;;;;;;;13.48;59.82;97801.41;10498409;28;20051;-60
2023/10/27 15:13:04;;;;;;;1.35;0.73;;;;;;;13.62;59.72;97796.34;10503113;28;20047;-60
2023/10/27 15:18:06;;;;;;;0.88;0.55;;;;;;;13.84;59.21;97799.34;10513274;28;20293;-60
2023/10/27 15:23:09;;;;;;;3.08;1.63;;;;;;;13.91;59.04;97801.13;10478978;28;20048;-60
2023/10/27 15:28:11;;;;;;;2.65;1.40;;;;;;;13.83;58.00;97798.50;10478539;28;20058;-59
2023/10/27 15:33:14;;;;;;;0.82;0.55;;;;;;;13.62;58.70;97800.78;10498567;28;20040;-59
2023/10/27 15:38:16;;;;;;;3.08;0.90;;;;;;;13.50;59.10;97810.78;10497353;28;20036;-59
2023/10/27 15:43:19;;;;;;;3.28;0.68;;;;;;;13.44;59.01;97815.84;10501902;28;20044;-60
2023/10/27 15:48:23;;;;;;;3.35;0.60;;;;;;;13.19;59.43;97825.41;10498745;28;20044;-60
2023/10/27 15:53:26;;;;;;;0.60;0.55;;;;;;;13.08;59.42;97815.22;10502183;28;20043;-59
2023/10/27 15:58:28;;;;;;;3.53;0.95;;;;;;;12.94;59.66;97807.94;10495292;28;20067;-59
2023/10/27 16:03:31;;;;;;;1.08;0.80;;;;;;;12.78;59.71;97813.94;10499566;28;20131;-59
2023/10/27 16:08:33;;;;;;;0.73;0.65;;;;;;;12.63;59.97;97833.88;10499383;28;20412;-59
2023/10/27 16:13:36;;;;;;;1.27;0.73;;;;;;;12.47;60.39;97836.38;10502031;28;20040;-60
2023/10/27 16:18:38;;;;;;;1.08;0.95;;;;;;;12.31;60.70;97849.38;10498233;28;20056;-59
2023/10/27 16:23:42;;;;;;;2.28;1.13;;;;;;;12.20;60.99;97841.72;10498111;28;20048;-59
2023/10/27 16:28:44;;;;;;;3.63;0.82;;;;;;;12.11;61.21;97840.00;10478890;28;20044;-59
2023/10/27 16:33:48;;;;;;;1.48;0.60;;;;;;;11.85;61.87;97849.59;10481041;28;20052;-59
2023/10/27 16:38:50;;;;;;;3.50;0.93;;;;;;;11.88;61.83;97862.41;10497951;28;20060;-59
2023/10/27 16:43:52;;;;;;;2.95;0.70;;;;;;;11.85;61.91;97871.38;10499884;28;20048;-59
2023/10/27 16:48:54;;;;;;;3.42;0.90;;;;;;;11.73;62.13;97867.34;10478939;28;20146;-58
2023/10/27 16:53:56;;;;;;;3.90;1.30;;;;;;;11.69;62.20;97865.16;10500704;28;20475;-57
2023/10/27 16:58:58;;;;;;;2.65;1.30;;;;;;;11.62;62.22;97877.22;10497368;28;20051;-58
2023/10/27 17:04:00;;;;;;;1.02;0.77;;;;;;;11.52;62.42;97872.00;10495522;28;20121;-58
2023/10/27 17:09:02;;;;;;;1.90;0.68;;;;;;;11.53;62.50;97880.69;10505031;28;20139;-58
2023/10/27 17:14:05;;;;;;;2.10;1.08;;;;;;;11.45;62.81;97885.84;10485997;28;20048;-58
2023/10/27 17:19:07;;;;;;;2.38;0.80;;;;;;;11.42;62.76;97901.84;10508904;28;20127;-58
2023/10/27 17:24:09;;;;;;;1.75;0.77;;;;;;;11.32;62.90;97909.72;10503979;28;20052;-58
2023/10/27 17:29:11;;;;;;;1.80;0.90;;;;;;;11.28;63.07;97911.81;10490602;28;20044;-58
2023/10/27 17:34:13;;;;;;;2.03;0.90;;;;;;;11.21;63.25;97926.44;10514627;28;20040;-59
2023/10/27 17:39:16;;;;;;;2.13;0.80;;;;;;;11.23;63.28;97929.72;10522580;28;20121;-59
2023/10/27 17:44:18;;;;;;;1.92;1.00;;;;;;;11.16;63.51;97938.31;10502158;28;20484;-59
2023/10/27 17:49:21;;;;;;;0.68;0.68;;;;;;;11.14;63.55;97941.09;10482919;28;20295;-59
2023/10/27 17:54:23;;;;;;;2.28;1.42;;;;;;;11.08;63.70;97948.66;10502338;28;20081;-59
2023/10/27 17:59:39;;;;;;;6.50;1.27;;;;;;;10.99;63.96;97950.31;10504072;28;20044;-59
2023/10/27 18:05:05;;;;;;;2.92;1.45;;;;;;;10.83;64.33;97955.31;10502504;28;20075;-60
2023/10/27 18:10:08;;;;;;;3.83;1.88;;;;;;;10.74;64.34;97950.09;10488192;28;20151;-59
2023/10/27 18:15:10;;;;;;;7.28;1.17;;;;;;;10.62;64.62;97946.00;10500756;28;20527;-59
2023/10/27 18:20:12;;;;;;;5.05;1.70;;;;;;;10.49;65.00;97956.75;10506346;28;20062;-59
2023/10/27 18:25:14;;;;;;;3.60;1.15;;;;;;;10.47;64.93;97958.66;10482844;28;20222;-59
2023/10/27 18:30:17;;;;;;;2.25;1.17;;;;;;;10.36;65.08;97957.00;10502562;28;20100;-59
2023/10/27 18:35:19;;;;;;;2.35;1.30;;;;;;;10.31;65.25;97947.94;10471687;28;20173;-59
2023/10/27 18:40:23;;;;;;;2.65;1.05;;;;;;;10.26;65.43;97955.34;10505520;28;20074;-59
2023/10/27 18:45:25;;;;;;;3.15;1.23;;;;;;;10.18;65.16;97957.84;10505707;28;20608;-59
2023/10/27 18:50:27;;;;;;;6.82;1.80;;;;;;;10.16;65.54;97959.75;10460775;28;20499;-59
2023/10/27 18:55:29;;;;;;;1.13;1.02;;;;;;;10.16;65.37;97959.75;10488916;28;20518;-59
2023/10/27 19:00:33;;;;;;;2.88;1.60;;;;;;;10.08;65.80;97951.78;10505928;28;20407;-59
2023/10/27 19:05:36;;;;;;;4.40;1.58;;;;;;;10.02;65.89;97947.94;10506679;28;20430;-59
2023/10/27 19:10:38;;;;;;;2.33;1.27;;;;;;;10.00;65.76;97949.03;10505851;28;20036;-59
2023/10/27 19:15:44;;;;;;;7.00;1.83;;;;;;;10.01;65.98;97940.25;10506708;28;20067;-59
2023/10/27 19:20:46;;;;;;;2.45;1.10;;;;;;;9.98;66.01;97945.72;10506306;28;20059;-59
2023/10/27 19:25:48;;;;;;;3.53;1.20;;;;;;;9.86;65.67;97950.25;10501948;28;20055;-59
2023/10/27 19:30:52;;;;;;;24.23;1.73;;;;;;;9.62;66.12;97957.59;10504262;28;20088;-59
2023/10/27 19:35:54;;;;;;;3.05;1.40;;;;;;;9.52;66.63;97973.19;10504986;28;20175;-59
2023/10/27 19:40:55;;;;;;;4.65;1.70;;;;;;;9.41;66.83;97970.69;10506036;28;20059;-59
2023/10/27 19:45:57;;;;;;;3.30;1.20;;;;;;;9.39;67.33;97983.06;10507559;28;20492;-59
2023/10/27 19:51:00;;;;;;;3.05;1.50;;;;;;;9.48;67.05;97990.06;10506181;28;20408;-60
2023/10/27 19:56:03;;;;;;;2.90;1.33;;;;;;;9.47;66.91;97995.44;10504067;28;20055;-59
2023/10/27 20:01:16;;;;;;;3.65;1.75;;;;;;;9.40;67.25;98008.16;10505999;28;20526;-59
2023/10/27 20:06:20;;;;;;;5.60;2.58;;;;;;;9.38;67.02;98012.69;10485616;28;20040;-59
2023/10/27 20:11:23;;;;;;;3.42;1.92;;;;;;;9.43;66.80;98013.16;10483558;28;20055;-59
2023/10/27 20:16:25;;;;;;;3.25;1.80;;;;;;;9.37;66.84;98025.88;10503510;28;20984;-59
2023/10/27 20:21:28;;;;;;;2.28;1.50;;;;;;;9.24;66.83;98025.28;10503974;28;20143;-59
2023/10/27 20:26:29;;;;;;;4.18;1.70;;;;;;;9.03;67.35;98032.28;10484059;28;20710;-59
2023/10/27 20:31:31;;;;;;;1.88;1.40;;;;;;;9.04;67.62;98021.72;10504669;28;20048;-59
2023/10/27 20:36:33;;;;;;;3.45;1.80;;;;;;;9.14;67.32;98030.41;10503857;28;20032;-59
2023/10/27 20:41:35;;;;;;;1.95;1.35;;;;;;;9.09;67.33;98030.00;10482885;28;20048;-59
2023/10/27 20:46:37;;;;;;;5.97;2.20;;;;;;;8.87;67.53;98019.72;10511628;28;20066;-59
2023/10/27 20:51:39;;;;;;;3.88;2.10;;;;;;;8.79;67.56;98016.91;10504115;28;20048;-59
2023/10/27 20:56:41;;;;;;;5.78;2.50;;;;;;;8.75;67.42;98010.31;10498830;28;20287;-59
2023/10/27 21:01:43;;;;;;;5.00;2.38;;;;;;;8.58;67.90;98016.06;10505334;28;20409;-59
2023/10/27 21:06:46;;;;;;;4.07;1.95;;;;;;;8.66;67.78;98014.47;10506784;28;20114;-60
2023/10/27 21:11:48;;;;;;;5.97;2.10;;;;;;;8.63;67.76;98012.13;10510928;28;20224;-60
2023/10/27 21:16:50;;;;;;;4.82;1.95;;;;;;;8.70;67.65;98017.66;10504689;28;20423;-59
2023/10/27 21:21:52;;;;;;;4.57;1.80;;;;;;;8.66;67.85;98024.06;10504038;28;20131;-59
2023/10/27 21:26:54;;;;;;;5.03;2.00;;;;;;;8.67;67.59;98017.88;10510264;28;20040;-59
2023/10/27 21:31:57;;;;;;;3.15;1.90;;;;;;;8.66;67.60;98024.06;10512457;28;20129;-59
2023/10/27 21:36:59;;;;;;;2.33;1.27;;;;;;;8.50;67.89;98018.47;10506155;28;20047;-59
2023/10/27 21:42:00;;;;;;;1.48;1.20;;;;;;;8.48;68.14;98018.59;10507860;28;20606;-59
2023/10/27 21:47:03;;;;;;;6.53;1.42;;;;;;;8.56;68.09;98023.16;10509442;28;20400;-58
2023/10/27 21:52:05;;;;;;;4.97;1.63;;;;;;;8.57;67.81;98037.84;10489470;28;20508;-59
2023/10/27 21:57:08;;;;;;;6.60;2.10;;;;;;;8.45;67.70;98036.22;10506015;28;20082;-59
2023/10/27 22:02:10;;;;;;;2.83;1.48;;;;;;;8.61;68.00;98045.28;10507153;28;20067;-59
2023/10/27 22:07:12;;;;;;;2.42;1.20;;;;;;;8.79;67.84;98049.00;10509153;28;20444;-59
2023/10/27 22:12:15;;;;;;;4.57;2.05;;;;;;;8.71;67.69;98053.16;10486882;28;20047;-59
2023/10/27 22:17:18;;;;;;;12.82;1.75;;;;;;;8.73;67.69;98059.09;10508054;28;20044;-59
2023/10/27 22:22:20;;;;;;;3.15;1.70;;;;;;;8.89;67.71;98072.53;10508778;28;20044;-59
2023/10/27 22:27:22;;;;;;;3.72;1.77;;;;;;;9.02;67.72;98065.34;10487697;28;20056;-59
2023/10/27 22:32:25;;;;;;;3.58;1.60;;;;;;;9.20;67.58;98069.03;10489175;28;20044;-59
2023/10/27 22:37:27;;;;;;;7.10;2.15;;;;;;;9.37;67.47;98068.44;10505291;28;20101;-59
2023/10/27 22:42:29;;;;;;;4.28;2.03;;;;;;;9.35;67.41;98065.16;10508339;28;20519;-59
2023/10/27 22:47:31;;;;;;;3.58;1.58;;;;;;;9.33;67.25;98072.28;10506494;28;20043;-58
2023/10/27 22:52:33;;;;;;;2.85;1.63;;;;;;;9.40;67.66;98068.19;10507693;28;20047;-59
2023/10/27 22:57:35;;;;;;;4.10;2.10;;;;;;;9.46;67.40;98069.47;10487542;28;20410;-59
2023/10/27 23:02:37;;;;;;;3.70;1.60;;;;;;;9.50;67.39;98070.84;10505131;28;20048;-59
2023/10/27 23:07:39;;;;;;;1.92;1.45;;;;;;;9.40;67.24;98068.19;10505197;28;20113;-59
2023/10/27 23:12:42;;;;;;;3.65;1.67;;;;;;;9.47;67.60;98071.09;10486938;28;20047;-57
2023/10/27 23:17:44;;;;;;;7.28;2.17;;;;;;;9.57;67.56;98074.59;10487218;28;20139;-59
2023/10/27 23:22:46;;;;;;;2.90;1.60;;;;;;;9.66;67.30;98066.03;10504879;28;20051;-59
2023/10/27 23:27:49;;;;;;;4.55;2.30;;;;;;;9.75;67.26;98064.41;10503627;28;20432;-59
2023/10/27 23:32:51;;;;;;;3.53;2.10;;;;;;;9.79;67.37;98060.56;10502792;28;20056;-59
2023/10/27 23:37:53;;;;;;;4.72;2.05;;;;;;;9.70;67.06;98062.19;10506791;28;20381;-59